sensor_id;sensor_type;location;lat;lon;timestamp;temperature;humidity
20288;DHT22;10303;51.960;8.372;2023-07-16T00:00:10;23.80;99.90
20288;DHT22;10303;51.960;8.372;2023-07-16T00:02:37;23.80;99.90
20288;DHT22;10303;51.960;8.372;2023-07-16T00:05:04;23.80;99.90
20288;DHT22;10303;51.960;8.372;2023-07-16T00:07:31;23.70;99.90
20288;DHT22;10303;51.960;8.372;2023-07-16T00:09:57;23.70;99.90
20288;DHT22;10303;51.960;8.372;2023-07-16T00:12:23;23.80;99.90
20288;DHT22;10303;51.960;8.372;2023-07-16T00:14:49;23.80;99.90
20288;DHT22;10303;51.960;8.372;2023-07-16T00:17:15;23.70;99.90
20288;DHT22;10303;51.960;8.372;2023-07-16T00:19:42;23.70;99.90
20288;DHT22;10303;51.960;8.372;2023-07-16T00:22:08;23.70;99.90
20288;DHT22;10303;51.960;8.372;2023-07-16T00:24:34;23.70;99.90
20288;DHT22;10303;51.960;8.372;2023-07-16T00:27:00;23.70;99.90
20288;DHT22;10303;51.960;8.372;2023-07-16T00:29:26;23.70;99.90
20288;DHT22;10303;51.960;8.372;2023-07-16T00:31:52;23.70;99.90
20288;DHT22;10303;51.960;8.372;2023-07-16T00:34:18;23.70;99.90
20288;DHT22;10303;51.960;8.372;2023-07-16T00:36:44;23.70;99.90
20288;DHT22;10303;51.960;8.372;2023-07-16T00:39:10;23.70;99.90
20288;DHT22;10303;51.960;8.372;2023-07-16T00:41:36;23.70;99.90
20288;DHT22;10303;51.960;8.372;2023-07-16T00:44:02;23.60;99.90
20288;DHT22;10303;51.960;8.372;2023-07-16T00:46:28;23.60;99.90
20288;DHT22;10303;51.960;8.372;2023-07-16T00:48:54;23.60;99.90
20288;DHT22;10303;51.960;8.372;2023-07-16T00:51:24;23.60;99.90
20288;DHT22;10303;51.960;8.372;2023-07-16T00:53:51;23.60;99.90
20288;DHT22;10303;51.960;8.372;2023-07-16T00:56:17;23.50;99.90
20288;DHT22;10303;51.960;8.372;2023-07-16T00:58:44;23.50;99.90
20288;DHT22;10303;51.960;8.372;2023-07-16T01:01:10;23.50;99.90
20288;DHT22;10303;51.960;8.372;2023-07-16T01:03:36;23.50;99.90
20288;DHT22;10303;51.960;8.372;2023-07-16T01:09:08;23.50;99.90
20288;DHT22;10303;51.960;8.372;2023-07-16T01:11:40;23.50;99.90
20288;DHT22;10303;51.960;8.372;2023-07-16T01:14:08;23.50;99.90
20288;DHT22;10303;51.960;8.372;2023-07-16T01:16:35;23.50;99.90
20288;DHT22;10303;51.960;8.372;2023-07-16T01:19:02;23.40;99.90
20288;DHT22;10303;51.960;8.372;2023-07-16T01:24:28;23.40;99.90
20288;DHT22;10303;51.960;8.372;2023-07-16T01:27:29;23.40;99.90
20288;DHT22;10303;51.960;8.372;2023-07-16T01:30:16;23.40;99.90
20288;DHT22;10303;51.960;8.372;2023-07-16T01:32:46;23.30;99.90
20288;DHT22;10303;51.960;8.372;2023-07-16T01:35:13;23.30;99.90
20288;DHT22;10303;51.960;8.372;2023-07-16T01:37:43;23.30;99.90
20288;DHT22;10303;51.960;8.372;2023-07-16T01:40:10;23.30;99.90
20288;DHT22;10303;51.960;8.372;2023-07-16T01:42:37;23.30;99.90
20288;DHT22;10303;51.960;8.372;2023-07-16T01:45:03;23.30;99.90
20288;DHT22;10303;51.960;8.372;2023-07-16T01:47:45;23.20;99.90
20288;DHT22;10303;51.960;8.372;2023-07-16T01:50:16;23.20;99.90
20288;DHT22;10303;51.960;8.372;2023-07-16T01:52:42;23.20;99.90
20288;DHT22;10303;51.960;8.372;2023-07-16T01:55:08;23.20;99.90
20288;DHT22;10303;51.960;8.372;2023-07-16T01:57:34;23.10;99.90
20288;DHT22;10303;51.960;8.372;2023-07-16T02:00:00;23.10;99.90
20288;DHT22;10303;51.960;8.372;2023-07-16T02:02:26;23.10;99.90
20288;DHT22;10303;51.960;8.372;2023-07-16T02:04:52;23.10;99.90
20288;DHT22;10303;51.960;8.372;2023-07-16T02:07:18;23.10;99.90
20288;DHT22;10303;51.960;8.372;2023-07-16T02:09:44;23.00;99.90
20288;DHT22;10303;51.960;8.372;2023-07-16T02:12:10;23.00;99.90
20288;DHT22;10303;51.960;8.372;2023-07-16T02:14:36;23.10;99.90
20288;DHT22;10303;51.960;8.372;2023-07-16T02:17:02;23.00;99.90
20288;DHT22;10303;51.960;8.372;2023-07-16T02:19:28;22.90;99.90
20288;DHT22;10303;51.960;8.372;2023-07-16T02:21:55;22.90;99.90
20288;DHT22;10303;51.960;8.372;2023-07-16T02:24:21;22.90;99.90
20288;DHT22;10303;51.960;8.372;2023-07-16T02:26:50;22.90;99.90
20288;DHT22;10303;51.960;8.372;2023-07-16T02:29:16;22.90;99.90
20288;DHT22;10303;51.960;8.372;2023-07-16T02:31:44;22.80;99.90
20288;DHT22;10303;51.960;8.372;2023-07-16T02:34:12;22.80;99.90
20288;DHT22;10303;51.960;8.372;2023-07-16T02:36:38;22.80;99.90
20288;DHT22;10303;51.960;8.372;2023-07-16T02:39:04;22.80;99.90
20288;DHT22;10303;51.960;8.372;2023-07-16T02:41:30;22.70;99.90
20288;DHT22;10303;51.960;8.372;2023-07-16T02:44:01;22.70;99.90
20288;DHT22;10303;51.960;8.372;2023-07-16T02:46:29;22.70;99.90
20288;DHT22;10303;51.960;8.372;2023-07-16T02:48:55;22.70;99.90
20288;DHT22;10303;51.960;8.372;2023-07-16T02:51:21;22.60;99.90
20288;DHT22;10303;51.960;8.372;2023-07-16T02:53:48;22.60;99.90
20288;DHT22;10303;51.960;8.372;2023-07-16T02:56:14;22.60;99.90
20288;DHT22;10303;51.960;8.372;2023-07-16T02:58:40;22.50;99.90
20288;DHT22;10303;51.960;8.372;2023-07-16T03:01:06;22.50;99.90
20288;DHT22;10303;51.960;8.372;2023-07-16T03:03:32;22.40;99.90
20288;DHT22;10303;51.960;8.372;2023-07-16T03:05:58;22.40;99.90
20288;DHT22;10303;51.960;8.372;2023-07-16T03:08:24;22.40;99.90
20288;DHT22;10303;51.960;8.372;2023-07-16T03:10:55;22.40;99.90
20288;DHT22;10303;51.960;8.372;2023-07-16T03:13:22;22.30;99.90
20288;DHT22;10303;51.960;8.372;2023-07-16T03:15:48;22.30;99.90
20288;DHT22;10303;51.960;8.372;2023-07-16T03:18:18;22.20;99.90
20288;DHT22;10303;51.960;8.372;2023-07-16T03:20:45;22.20;99.90
20288;DHT22;10303;51.960;8.372;2023-07-16T03:23:11;22.10;99.90
20288;DHT22;10303;51.960;8.372;2023-07-16T03:25:37;22.20;99.90
20288;DHT22;10303;51.960;8.372;2023-07-16T03:28:03;22.10;99.90
20288;DHT22;10303;51.960;8.372;2023-07-16T03:30:31;22.10;99.90
20288;DHT22;10303;51.960;8.372;2023-07-16T03:32:57;22.10;99.90
20288;DHT22;10303;51.960;8.372;2023-07-16T03:35:25;22.00;99.90
20288;DHT22;10303;51.960;8.372;2023-07-16T03:37:51;22.00;99.90
20288;DHT22;10303;51.960;8.372;2023-07-16T03:40:23;22.00;99.90
20288;DHT22;10303;51.960;8.372;2023-07-16T03:42:50;21.90;99.90
20288;DHT22;10303;51.960;8.372;2023-07-16T03:45:16;22.00;99.90
20288;DHT22;10303;51.960;8.372;2023-07-16T03:47:43;21.90;99.90
20288;DHT22;10303;51.960;8.372;2023-07-16T03:50:09;21.90;99.90
20288;DHT22;10303;51.960;8.372;2023-07-16T03:52:35;21.80;99.90
20288;DHT22;10303;51.960;8.372;2023-07-16T03:55:02;21.80;99.90
20288;DHT22;10303;51.960;8.372;2023-07-16T03:57:29;21.80;99.90
20288;DHT22;10303;51.960;8.372;2023-07-16T03:59:55;21.80;99.90
20288;DHT22;10303;51.960;8.372;2023-07-16T04:02:21;21.80;99.90
20288;DHT22;10303;51.960;8.372;2023-07-16T04:04:47;21.70;99.90
20288;DHT22;10303;51.960;8.372;2023-07-16T04:07:13;21.70;99.90
20288;DHT22;10303;51.960;8.372;2023-07-16T04:09:39;21.70;99.90
20288;DHT22;10303;51.960;8.372;2023-07-16T04:12:06;21.70;99.90
20288;DHT22;10303;51.960;8.372;2023-07-16T04:14:32;21.70;99.90
20288;DHT22;10303;51.960;8.372;2023-07-16T04:16:58;21.70;99.90
20288;DHT22;10303;51.960;8.372;2023-07-16T04:19:25;21.70;99.90
20288;DHT22;10303;51.960;8.372;2023-07-16T04:21:50;21.60;99.90
20288;DHT22;10303;51.960;8.372;2023-07-16T04:24:16;21.60;99.90
20288;DHT22;10303;51.960;8.372;2023-07-16T04:26:42;21.50;99.90
20288;DHT22;10303;51.960;8.372;2023-07-16T04:29:08;21.50;99.90
20288;DHT22;10303;51.960;8.372;2023-07-16T04:31:34;21.50;99.90
20288;DHT22;10303;51.960;8.372;2023-07-16T04:34:01;21.50;99.90
20288;DHT22;10303;51.960;8.372;2023-07-16T04:36:27;21.50;99.90
20288;DHT22;10303;51.960;8.372;2023-07-16T04:38:53;21.50;99.90
20288;DHT22;10303;51.960;8.372;2023-07-16T04:41:19;21.50;99.90
20288;DHT22;10303;51.960;8.372;2023-07-16T04:43:45;21.50;99.90
20288;DHT22;10303;51.960;8.372;2023-07-16T04:46:11;21.50;99.90
20288;DHT22;10303;51.960;8.372;2023-07-16T04:48:37;21.50;99.90
20288;DHT22;10303;51.960;8.372;2023-07-16T04:51:03;21.50;99.90
20288;DHT22;10303;51.960;8.372;2023-07-16T04:53:29;21.50;99.90
20288;DHT22;10303;51.960;8.372;2023-07-16T04:55:55;21.50;99.90
20288;DHT22;10303;51.960;8.372;2023-07-16T04:58:22;21.60;99.90
20288;DHT22;10303;51.960;8.372;2023-07-16T05:00:48;21.60;99.90
20288;DHT22;10303;51.960;8.372;2023-07-16T05:03:15;21.60;99.90
20288;DHT22;10303;51.960;8.372;2023-07-16T05:05:41;21.60;99.90
20288;DHT22;10303;51.960;8.372;2023-07-16T05:08:07;21.60;99.90
20288;DHT22;10303;51.960;8.372;2023-07-16T05:10:33;21.60;99.90
20288;DHT22;10303;51.960;8.372;2023-07-16T05:12:59;21.60;99.90
20288;DHT22;10303;51.960;8.372;2023-07-16T05:15:25;21.70;99.90
20288;DHT22;10303;51.960;8.372;2023-07-16T05:17:51;21.70;99.90
20288;DHT22;10303;51.960;8.372;2023-07-16T05:20:17;21.70;99.90
20288;DHT22;10303;51.960;8.372;2023-07-16T05:22:43;21.80;99.90
20288;DHT22;10303;51.960;8.372;2023-07-16T05:25:10;21.70;99.90
20288;DHT22;10303;51.960;8.372;2023-07-16T05:27:36;21.80;99.90
20288;DHT22;10303;51.960;8.372;2023-07-16T05:30:03;21.80;99.90
20288;DHT22;10303;51.960;8.372;2023-07-16T05:32:30;21.80;99.90
20288;DHT22;10303;51.960;8.372;2023-07-16T05:34:56;21.80;99.90
20288;DHT22;10303;51.960;8.372;2023-07-16T05:37:22;21.80;99.90
20288;DHT22;10303;51.960;8.372;2023-07-16T05:39:48;21.90;99.90
20288;DHT22;10303;51.960;8.372;2023-07-16T05:42:14;21.90;99.90
20288;DHT22;10303;51.960;8.372;2023-07-16T05:44:40;21.90;99.90
20288;DHT22;10303;51.960;8.372;2023-07-16T05:47:07;21.90;99.90
20288;DHT22;10303;51.960;8.372;2023-07-16T05:49:34;21.90;99.90
20288;DHT22;10303;51.960;8.372;2023-07-16T05:52:00;21.90;99.90
20288;DHT22;10303;51.960;8.372;2023-07-16T05:54:26;21.90;99.90
20288;DHT22;10303;51.960;8.372;2023-07-16T05:56:52;21.90;99.90
20288;DHT22;10303;51.960;8.372;2023-07-16T05:59:18;22.00;99.90
20288;DHT22;10303;51.960;8.372;2023-07-16T06:01:44;22.00;99.90
20288;DHT22;10303;51.960;8.372;2023-07-16T06:04:10;22.00;99.90
20288;DHT22;10303;51.960;8.372;2023-07-16T06:06:36;22.00;99.90
20288;DHT22;10303;51.960;8.372;2023-07-16T06:09:02;22.00;99.90
20288;DHT22;10303;51.960;8.372;2023-07-16T06:11:28;22.00;99.90
20288;DHT22;10303;51.960;8.372;2023-07-16T06:13:54;22.00;99.90
20288;DHT22;10303;51.960;8.372;2023-07-16T06:16:20;22.10;99.90
20288;DHT22;10303;51.960;8.372;2023-07-16T06:18:47;22.00;99.90
20288;DHT22;10303;51.960;8.372;2023-07-16T06:21:13;22.00;99.90
20288;DHT22;10303;51.960;8.372;2023-07-16T06:23:40;22.10;99.90
20288;DHT22;10303;51.960;8.372;2023-07-16T06:26:08;22.10;99.90
20288;DHT22;10303;51.960;8.372;2023-07-16T06:28:34;22.10;99.90
20288;DHT22;10303;51.960;8.372;2023-07-16T06:31:00;22.10;99.90
20288;DHT22;10303;51.960;8.372;2023-07-16T06:33:25;22.10;99.90
20288;DHT22;10303;51.960;8.372;2023-07-16T06:35:52;22.10;99.90
20288;DHT22;10303;51.960;8.372;2023-07-16T06:38:18;22.10;99.90
20288;DHT22;10303;51.960;8.372;2023-07-16T06:40:49;22.10;99.90
20288;DHT22;10303;51.960;8.372;2023-07-16T06:43:16;22.20;99.90
20288;DHT22;10303;51.960;8.372;2023-07-16T06:45:42;22.20;99.80
20288;DHT22;10303;51.960;8.372;2023-07-16T06:48:08;22.30;99.70
20288;DHT22;10303;51.960;8.372;2023-07-16T06:50:35;22.30;99.50
20288;DHT22;10303;51.960;8.372;2023-07-16T06:53:01;22.30;98.70
20288;DHT22;10303;51.960;8.372;2023-07-16T06:55:27;22.20;97.50
20288;DHT22;10303;51.960;8.372;2023-07-16T06:57:53;22.30;97.90
20288;DHT22;10303;51.960;8.372;2023-07-16T07:00:19;22.40;97.70
20288;DHT22;10303;51.960;8.372;2023-07-16T07:02:46;22.40;97.50
20288;DHT22;10303;51.960;8.372;2023-07-16T07:05:11;22.50;98.00
20288;DHT22;10303;51.960;8.372;2023-07-16T07:07:37;22.50;98.70
20288;DHT22;10303;51.960;8.372;2023-07-16T07:10:04;22.60;96.60
20288;DHT22;10303;51.960;8.372;2023-07-16T07:12:30;22.60;96.90
20288;DHT22;10303;51.960;8.372;2023-07-16T07:15:05;22.70;96.20
20288;DHT22;10303;51.960;8.372;2023-07-16T07:17:35;22.50;95.80
20288;DHT22;10303;51.960;8.372;2023-07-16T07:20:02;22.50;96.10
20288;DHT22;10303;51.960;8.372;2023-07-16T07:22:29;22.60;96.50
20288;DHT22;10303;51.960;8.372;2023-07-16T07:24:55;22.60;95.70
20288;DHT22;10303;51.960;8.372;2023-07-16T07:27:21;22.70;96.40
20288;DHT22;10303;51.960;8.372;2023-07-16T07:29:47;22.80;95.80
20288;DHT22;10303;51.960;8.372;2023-07-16T07:32:20;22.90;95.90
20288;DHT22;10303;51.960;8.372;2023-07-16T07:34:46;22.90;96.10
20288;DHT22;10303;51.960;8.372;2023-07-16T07:37:13;23.00;95.70
20288;DHT22;10303;51.960;8.372;2023-07-16T07:39:39;22.90;95.30
20288;DHT22;10303;51.960;8.372;2023-07-16T07:42:05;23.00;94.90
20288;DHT22;10303;51.960;8.372;2023-07-16T07:44:32;23.10;94.10
20288;DHT22;10303;51.960;8.372;2023-07-16T07:46:58;22.90;92.90
20288;DHT22;10303;51.960;8.372;2023-07-16T07:49:24;23.00;93.60
20288;DHT22;10303;51.960;8.372;2023-07-16T07:51:50;23.00;92.80
20288;DHT22;10303;51.960;8.372;2023-07-16T07:54:16;23.00;92.30
20288;DHT22;10303;51.960;8.372;2023-07-16T07:56:45;23.00;91.20
20288;DHT22;10303;51.960;8.372;2023-07-16T07:59:11;23.10;92.10
20288;DHT22;10303;51.960;8.372;2023-07-16T08:01:37;23.10;92.60
20288;DHT22;10303;51.960;8.372;2023-07-16T08:04:03;23.20;91.80
20288;DHT22;10303;51.960;8.372;2023-07-16T08:06:29;23.30;92.30
20288;DHT22;10303;51.960;8.372;2023-07-16T08:08:55;23.30;90.80
20288;DHT22;10303;51.960;8.372;2023-07-16T08:11:21;23.20;90.90
20288;DHT22;10303;51.960;8.372;2023-07-16T08:13:48;23.20;90.90
20288;DHT22;10303;51.960;8.372;2023-07-16T08:16:15;23.30;90.70
20288;DHT22;10303;51.960;8.372;2023-07-16T08:18:41;23.50;90.90
20288;DHT22;10303;51.960;8.372;2023-07-16T08:21:07;23.60;90.80
20288;DHT22;10303;51.960;8.372;2023-07-16T08:23:33;23.70;91.10
20288;DHT22;10303;51.960;8.372;2023-07-16T08:25:59;23.90;91.90
20288;DHT22;10303;51.960;8.372;2023-07-16T08:28:25;24.00;88.80
20288;DHT22;10303;51.960;8.372;2023-07-16T08:30:51;24.10;90.10
20288;DHT22;10303;51.960;8.372;2023-07-16T08:33:17;24.20;88.40
20288;DHT22;10303;51.960;8.372;2023-07-16T08:35:43;24.30;85.70
20288;DHT22;10303;51.960;8.372;2023-07-16T08:38:09;24.30;86.10
20288;DHT22;10303;51.960;8.372;2023-07-16T08:40:40;24.40;87.10
20288;DHT22;10303;51.960;8.372;2023-07-16T08:43:06;24.50;85.40
20288;DHT22;10303;51.960;8.372;2023-07-16T08:45:38;24.60;86.40
20288;DHT22;10303;51.960;8.372;2023-07-16T08:48:06;24.70;83.70
20288;DHT22;10303;51.960;8.372;2023-07-16T08:50:35;24.80;84.20
20288;DHT22;10303;51.960;8.372;2023-07-16T08:53:06;24.90;85.50
20288;DHT22;10303;51.960;8.372;2023-07-16T08:55:33;25.10;85.20
20288;DHT22;10303;51.960;8.372;2023-07-16T08:58:03;25.10;81.50
20288;DHT22;10303;51.960;8.372;2023-07-16T09:00:31;25.20;84.20
20288;DHT22;10303;51.960;8.372;2023-07-16T09:02:58;25.30;84.20
20288;DHT22;10303;51.960;8.372;2023-07-16T09:05:25;25.30;81.40
20288;DHT22;10303;51.960;8.372;2023-07-16T09:07:51;25.40;82.10
20288;DHT22;10303;51.960;8.372;2023-07-16T09:10:17;25.20;81.20
20288;DHT22;10303;51.960;8.372;2023-07-16T09:12:45;25.20;82.50
20288;DHT22;10303;51.960;8.372;2023-07-16T09:15:13;25.20;79.40
20288;DHT22;10303;51.960;8.372;2023-07-16T09:17:48;25.30;79.80
20288;DHT22;10303;51.960;8.372;2023-07-16T09:20:18;25.30;79.40
20288;DHT22;10303;51.960;8.372;2023-07-16T09:22:44;25.30;79.70
20288;DHT22;10303;51.960;8.372;2023-07-16T09:25:11;25.40;80.00
20288;DHT22;10303;51.960;8.372;2023-07-16T09:27:37;25.40;79.00
20288;DHT22;10303;51.960;8.372;2023-07-16T09:30:04;25.40;77.70
20288;DHT22;10303;51.960;8.372;2023-07-16T09:32:35;25.10;76.00
20288;DHT22;10303;51.960;8.372;2023-07-16T09:35:16;25.20;78.20
20288;DHT22;10303;51.960;8.372;2023-07-16T09:37:43;25.20;76.70
20288;DHT22;10303;51.960;8.372;2023-07-16T09:40:11;25.00;76.20
20288;DHT22;10303;51.960;8.372;2023-07-16T09:42:38;25.00;78.40
20288;DHT22;10303;51.960;8.372;2023-07-16T09:45:07;25.10;78.70
20288;DHT22;10303;51.960;8.372;2023-07-16T09:47:35;25.10;78.00
20288;DHT22;10303;51.960;8.372;2023-07-16T09:50:02;25.20;77.50
20288;DHT22;10303;51.960;8.372;2023-07-16T09:52:31;25.30;77.50
20288;DHT22;10303;51.960;8.372;2023-07-16T09:55:01;25.50;79.40
20288;DHT22;10303;51.960;8.372;2023-07-16T09:57:32;25.60;80.30
20288;DHT22;10303;51.960;8.372;2023-07-16T10:00:06;25.70;79.20
20288;DHT22;10303;51.960;8.372;2023-07-16T10:02:41;25.90;79.30
20288;DHT22;10303;51.960;8.372;2023-07-16T10:05:29;26.00;76.60
20288;DHT22;10303;51.960;8.372;2023-07-16T10:07:59;26.20;78.00
20288;DHT22;10303;51.960;8.372;2023-07-16T10:10:38;26.30;73.00
20288;DHT22;10303;51.960;8.372;2023-07-16T10:13:07;26.50;76.00
20288;DHT22;10303;51.960;8.372;2023-07-16T10:15:33;26.70;74.50
20288;DHT22;10303;51.960;8.372;2023-07-16T10:18:00;26.80;76.50
20288;DHT22;10303;51.960;8.372;2023-07-16T10:20:36;27.00;74.60
20288;DHT22;10303;51.960;8.372;2023-07-16T10:23:15;27.10;70.00
20288;DHT22;10303;51.960;8.372;2023-07-16T10:26:01;27.20;69.30
20288;DHT22;10303;51.960;8.372;2023-07-16T10:28:34;27.30;71.40
20288;DHT22;10303;51.960;8.372;2023-07-16T10:31:01;27.50;72.50
20288;DHT22;10303;51.960;8.372;2023-07-16T10:33:28;27.70;71.70
20288;DHT22;10303;51.960;8.372;2023-07-16T10:35:57;27.70;69.70
20288;DHT22;10303;51.960;8.372;2023-07-16T10:38:26;27.80;68.80
20288;DHT22;10303;51.960;8.372;2023-07-16T10:40:52;27.70;68.70
20288;DHT22;10303;51.960;8.372;2023-07-16T10:43:18;27.80;67.90
20288;DHT22;10303;51.960;8.372;2023-07-16T10:45:46;27.80;68.40
20288;DHT22;10303;51.960;8.372;2023-07-16T10:48:12;27.90;71.30
20288;DHT22;10303;51.960;8.372;2023-07-16T10:50:39;27.90;69.00
20288;DHT22;10303;51.960;8.372;2023-07-16T10:53:05;28.10;67.10
20288;DHT22;10303;51.960;8.372;2023-07-16T10:55:31;28.20;66.20
20288;DHT22;10303;51.960;8.372;2023-07-16T10:58:04;28.20;64.90
20288;DHT22;10303;51.960;8.372;2023-07-16T11:00:38;28.20;66.00
20288;DHT22;10303;51.960;8.372;2023-07-16T11:03:05;28.00;65.80
20288;DHT22;10303;51.960;8.372;2023-07-16T11:05:32;28.00;64.60
20288;DHT22;10303;51.960;8.372;2023-07-16T11:07:58;27.70;64.80
20288;DHT22;10303;51.960;8.372;2023-07-16T11:10:24;27.70;64.60
20288;DHT22;10303;51.960;8.372;2023-07-16T11:12:55;27.50;66.70
20288;DHT22;10303;51.960;8.372;2023-07-16T11:15:34;27.40;66.90
20288;DHT22;10303;51.960;8.372;2023-07-16T11:18:01;27.30;66.70
20288;DHT22;10303;51.960;8.372;2023-07-16T11:20:29;27.30;65.40
20288;DHT22;10303;51.960;8.372;2023-07-16T11:22:58;27.30;66.90
20288;DHT22;10303;51.960;8.372;2023-07-16T11:25:28;27.30;66.70
20288;DHT22;10303;51.960;8.372;2023-07-16T11:27:55;27.20;65.20
20288;DHT22;10303;51.960;8.372;2023-07-16T11:30:24;27.20;67.80
20288;DHT22;10303;51.960;8.372;2023-07-16T11:32:51;27.10;68.10
20288;DHT22;10303;51.960;8.372;2023-07-16T11:35:19;27.10;67.40
20288;DHT22;10303;51.960;8.372;2023-07-16T11:37:46;27.20;66.10
20288;DHT22;10303;51.960;8.372;2023-07-16T11:40:20;27.30;66.70
20288;DHT22;10303;51.960;8.372;2023-07-16T11:42:47;27.40;67.00
20288;DHT22;10303;51.960;8.372;2023-07-16T11:45:27;27.50;66.60
20288;DHT22;10303;51.960;8.372;2023-07-16T11:47:54;27.60;65.50
20288;DHT22;10303;51.960;8.372;2023-07-16T11:50:20;27.60;66.20
20288;DHT22;10303;51.960;8.372;2023-07-16T11:52:54;27.70;66.50
20288;DHT22;10303;51.960;8.372;2023-07-16T11:55:24;27.60;63.30
20288;DHT22;10303;51.960;8.372;2023-07-16T11:57:51;27.60;64.80
20288;DHT22;10303;51.960;8.372;2023-07-16T12:00:17;27.70;63.90
20288;DHT22;10303;51.960;8.372;2023-07-16T12:02:44;27.60;63.90
20288;DHT22;10303;51.960;8.372;2023-07-16T12:05:21;27.60;63.30
20288;DHT22;10303;51.960;8.372;2023-07-16T12:07:49;27.50;62.70
20288;DHT22;10303;51.960;8.372;2023-07-16T12:10:15;27.30;63.30
20288;DHT22;10303;51.960;8.372;2023-07-16T12:12:42;27.30;63.80
20288;DHT22;10303;51.960;8.372;2023-07-16T12:15:08;27.30;64.20
20288;DHT22;10303;51.960;8.372;2023-07-16T12:17:35;27.30;65.00
20288;DHT22;10303;51.960;8.372;2023-07-16T12:20:05;27.30;64.80
20288;DHT22;10303;51.960;8.372;2023-07-16T12:22:31;27.40;65.10
20288;DHT22;10303;51.960;8.372;2023-07-16T12:24:57;27.50;65.90
20288;DHT22;10303;51.960;8.372;2023-07-16T12:27:23;27.60;65.80
20288;DHT22;10303;51.960;8.372;2023-07-16T12:29:49;27.60;63.40
20288;DHT22;10303;51.960;8.372;2023-07-16T12:32:15;27.70;64.20
20288;DHT22;10303;51.960;8.372;2023-07-16T12:34:41;27.70;66.80
20288;DHT22;10303;51.960;8.372;2023-07-16T12:37:07;27.60;64.30
20288;DHT22;10303;51.960;8.372;2023-07-16T12:39:33;27.60;65.10
20288;DHT22;10303;51.960;8.372;2023-07-16T12:41:59;27.80;64.70
20288;DHT22;10303;51.960;8.372;2023-07-16T12:44:25;27.80;63.70
20288;DHT22;10303;51.960;8.372;2023-07-16T12:46:51;27.90;65.00
20288;DHT22;10303;51.960;8.372;2023-07-16T12:49:17;27.80;64.70
20288;DHT22;10303;51.960;8.372;2023-07-16T12:51:43;28.00;65.60
20288;DHT22;10303;51.960;8.372;2023-07-16T12:54:10;28.00;65.90
20288;DHT22;10303;51.960;8.372;2023-07-16T12:56:36;28.10;66.60
20288;DHT22;10303;51.960;8.372;2023-07-16T12:59:02;28.20;67.70
20288;DHT22;10303;51.960;8.372;2023-07-16T13:01:29;28.30;65.60
20288;DHT22;10303;51.960;8.372;2023-07-16T13:03:56;28.20;66.30
20288;DHT22;10303;51.960;8.372;2023-07-16T13:06:22;28.40;64.10
20288;DHT22;10303;51.960;8.372;2023-07-16T13:08:48;28.50;60.50
20288;DHT22;10303;51.960;8.372;2023-07-16T13:11:14;28.60;60.90
20288;DHT22;10303;51.960;8.372;2023-07-16T13:13:40;28.60;61.40
20288;DHT22;10303;51.960;8.372;2023-07-16T13:16:07;28.50;62.90
20288;DHT22;10303;51.960;8.372;2023-07-16T13:18:33;28.40;63.60
20288;DHT22;10303;51.960;8.372;2023-07-16T13:20:59;28.50;63.30
20288;DHT22;10303;51.960;8.372;2023-07-16T13:23:25;27.80;61.60
20288;DHT22;10303;51.960;8.372;2023-07-16T13:25:51;27.60;65.80
20288;DHT22;10303;51.960;8.372;2023-07-16T13:28:18;27.70;63.30
20288;DHT22;10303;51.960;8.372;2023-07-16T13:30:46;27.80;64.60
20288;DHT22;10303;51.960;8.372;2023-07-16T13:33:12;27.90;62.70
20288;DHT22;10303;51.960;8.372;2023-07-16T13:35:38;27.70;64.00
20288;DHT22;10303;51.960;8.372;2023-07-16T13:38:05;27.60;66.10
20288;DHT22;10303;51.960;8.372;2023-07-16T13:40:31;27.30;64.70
20288;DHT22;10303;51.960;8.372;2023-07-16T13:42:57;27.40;66.20
20288;DHT22;10303;51.960;8.372;2023-07-16T13:45:24;27.30;65.60
20288;DHT22;10303;51.960;8.372;2023-07-16T13:47:50;27.20;65.60
20288;DHT22;10303;51.960;8.372;2023-07-16T13:50:18;27.40;65.70
20288;DHT22;10303;51.960;8.372;2023-07-16T13:52:44;27.60;64.20
20288;DHT22;10303;51.960;8.372;2023-07-16T13:55:10;27.50;63.70
20288;DHT22;10303;51.960;8.372;2023-07-16T13:57:36;27.40;67.20
20288;DHT22;10303;51.960;8.372;2023-07-16T14:00:04;27.10;65.90
20288;DHT22;10303;51.960;8.372;2023-07-16T14:02:31;27.00;68.10
20288;DHT22;10303;51.960;8.372;2023-07-16T14:04:57;27.20;69.20
20288;DHT22;10303;51.960;8.372;2023-07-16T14:07:23;27.10;66.90
20288;DHT22;10303;51.960;8.372;2023-07-16T14:09:49;27.40;67.90
20288;DHT22;10303;51.960;8.372;2023-07-16T14:12:15;27.60;67.80
20288;DHT22;10303;51.960;8.372;2023-07-16T14:14:41;27.60;66.20
20288;DHT22;10303;51.960;8.372;2023-07-16T14:17:07;27.70;64.60
20288;DHT22;10303;51.960;8.372;2023-07-16T14:19:33;27.40;67.50
20288;DHT22;10303;51.960;8.372;2023-07-16T14:21:59;27.60;65.40
20288;DHT22;10303;51.960;8.372;2023-07-16T14:24:25;27.40;64.70
20288;DHT22;10303;51.960;8.372;2023-07-16T14:26:51;27.60;64.20
20288;DHT22;10303;51.960;8.372;2023-07-16T14:29:17;27.70;64.50
20288;DHT22;10303;51.960;8.372;2023-07-16T14:31:43;27.80;65.40
20288;DHT22;10303;51.960;8.372;2023-07-16T14:34:10;27.60;63.80
20288;DHT22;10303;51.960;8.372;2023-07-16T14:36:36;27.70;65.30
20288;DHT22;10303;51.960;8.372;2023-07-16T14:39:02;27.70;65.50
20288;DHT22;10303;51.960;8.372;2023-07-16T14:41:28;27.70;65.40
20288;DHT22;10303;51.960;8.372;2023-07-16T14:43:54;27.50;66.10
20288;DHT22;10303;51.960;8.372;2023-07-16T14:46:20;27.40;67.10
20288;DHT22;10303;51.960;8.372;2023-07-16T14:48:46;27.40;66.40
20288;DHT22;10303;51.960;8.372;2023-07-16T14:51:12;27.60;66.00
20288;DHT22;10303;51.960;8.372;2023-07-16T14:53:38;27.60;66.00
20288;DHT22;10303;51.960;8.372;2023-07-16T14:56:05;27.60;64.80
20288;DHT22;10303;51.960;8.372;2023-07-16T14:58:32;27.60;64.60
20288;DHT22;10303;51.960;8.372;2023-07-16T15:01:00;27.40;64.40
20288;DHT22;10303;51.960;8.372;2023-07-16T15:03:29;27.40;63.90
20288;DHT22;10303;51.960;8.372;2023-07-16T15:05:59;27.40;64.50
20288;DHT22;10303;51.960;8.372;2023-07-16T15:08:25;27.50;65.70
20288;DHT22;10303;51.960;8.372;2023-07-16T15:10:55;27.50;65.70
20288;DHT22;10303;51.960;8.372;2023-07-16T15:13:22;27.30;66.70
20288;DHT22;10303;51.960;8.372;2023-07-16T15:15:54;27.30;66.60
20288;DHT22;10303;51.960;8.372;2023-07-16T15:18:23;27.30;66.40
20288;DHT22;10303;51.960;8.372;2023-07-16T15:20:58;27.30;66.80
20288;DHT22;10303;51.960;8.372;2023-07-16T15:23:26;27.20;65.60
20288;DHT22;10303;51.960;8.372;2023-07-16T15:25:55;27.20;67.40
20288;DHT22;10303;51.960;8.372;2023-07-16T15:28:21;27.10;66.90
20288;DHT22;10303;51.960;8.372;2023-07-16T15:30:48;27.30;66.40
20288;DHT22;10303;51.960;8.372;2023-07-16T15:33:14;27.20;67.90
20288;DHT22;10303;51.960;8.372;2023-07-16T15:35:40;27.10;66.80